Time;durP1;ratioP1;P1;durP2;ratioP2;P2;SDS_P1;SDS_P2;PMS_P1;PMS_P2;Temp;Humidity;BMP_temperature;BMP_pressure;BME280_temperature;BME280_humidity;BME280_pressure;Samples;Min_cycle;Max_cycle;Signal;HPM_P1;HPM_P2
2022/04/16 00:00:50;;;;;;;4.47;2.65;;;;;;;;;;5004413;28;20069;-89
2022/04/16 00:03:16;;;;;;;3.92;2.67;;;;;;;;;;4993811;28;20039;-86
2022/04/16 00:05:42;;;;;;;3.40;2.58;;;;;;;;;;4992463;28;20041;-84
2022/04/16 00:08:07;;;;;;;6.50;2.75;;;;;;;;;;5004458;28;20044;-87
2022/04/16 00:10:37;;;;;;;5.47;2.42;;;;;;;;;;4987114;28;20364;-85
2022/04/16 00:13:04;;;;;;;5.15;2.38;;;;;;;;;;4983360;28;20395;-87
2022/04/16 00:15:30;;;;;;;3.63;2.17;;;;;;;;;;4983941;28;20448;-87
2022/04/16 00:17:56;;;;;;;5.25;2.60;;;;;;;;;;4981659;28;20042;-88
2022/04/16 00:20:27;;;;;;;4.95;2.15;;;;;;;;;;5008714;28;20030;-87
2022/04/16 00:22:53;;;;;;;4.68;2.25;;;;;;;;;;4987136;28;20061;-85
2022/04/16 00:25:19;;;;;;;2.78;2.13;;;;;;;;;;5006476;28;20064;-88
2022/04/16 00:27:46;;;;;;;3.60;2.47;;;;;;;;;;4982223;28;20483;-84
2022/04/16 00:30:12;;;;;;;5.32;2.72;;;;;;;;;;5012487;28;20041;-83
2022/04/16 00:32:38;;;;;;;6.97;2.60;;;;;;;;;;4991444;28;20030;-87
2022/04/16 00:35:04;;;;;;;5.85;2.70;;;;;;;;;;4992515;28;20033;-86
2022/04/16 00:37:30;;;;;;;5.32;2.67;;;;;;;;;;4989127;28;20118;-87
2022/04/16 00:39:55;;;;;;;3.97;2.28;;;;;;;;;;4989466;28;20117;-87
2022/04/16 00:42:21;;;;;;;5.18;2.45;;;;;;;;;;4979687;28;20026;-86
2022/04/16 00:44:46;;;;;;;3.75;2.38;;;;;;;;;;4988243;28;20125;-91
2022/04/16 00:47:12;;;;;;;3.67;2.05;;;;;;;;;;4990387;28;20084;-88
2022/04/16 00:49:38;;;;;;;5.13;2.50;;;;;;;;;;5001011;28;20022;-86
2022/04/16 00:52:04;;;;;;;2.95;2.10;;;;;;;;;;4991202;28;20045;-87
2022/04/16 00:54:30;;;;;;;3.53;1.85;;;;;;;;;;4988887;28;20746;-86
2022/04/16 00:56:56;;;;;;;5.18;2.13;;;;;;;;;;4986706;28;20033;-88
2022/04/16 00:59:22;;;;;;;5.63;2.13;;;;;;;;;;5003043;28;20061;-87
2022/04/16 01:01:47;;;;;;;4.20;2.08;;;;;;;;;;5000982;28;20085;-91
2022/04/16 01:04:13;;;;;;;4.57;2.42;;;;;;;;;;5001042;28;20053;-87
2022/04/16 01:06:40;;;;;;;3.17;1.88;;;;;;;;;;5010536;28;20145;-88
2022/04/16 01:09:06;;;;;;;3.10;1.70;;;;;;;;;;5003584;28;20075;-88
2022/04/16 01:11:32;;;;;;;4.28;2.42;;;;;;;;;;4987722;28;20038;-91
2022/04/16 01:14:02;;;;;;;4.25;2.28;;;;;;;;;;4999717;28;20042;-89
2022/04/16 01:16:31;;;;;;;3.25;2.00;;;;;;;;;;4988187;28;20033;-86
2022/04/16 01:18:57;;;;;;;2.95;2.08;;;;;;;;;;4983284;28;20034;-86
2022/04/16 01:21:23;;;;;;;3.38;2.22;;;;;;;;;;4983213;28;20038;-90
2022/04/16 01:23:49;;;;;;;2.65;1.80;;;;;;;;;;5006237;28;20037;-89
2022/04/16 01:26:15;;;;;;;3.85;2.38;;;;;;;;;;4986358;28;20104;-87
2022/04/16 01:28:41;;;;;;;3.92;1.80;;;;;;;;;;5006641;28;20034;-89
2022/04/16 01:31:06;;;;;;;5.95;3.17;;;;;;;;;;5005602;28;20027;-90
2022/04/16 01:33:32;;;;;;;5.50;3.63;;;;;;;;;;5010791;28;20037;-87
2022/04/16 01:35:58;;;;;;;6.07;3.35;;;;;;;;;;4981641;28;20045;-90
2022/04/16 01:38:26;;;;;;;4.82;2.92;;;;;;;;;;5003643;28;20041;-86
2022/04/16 01:40:56;;;;;;;5.88;2.25;;;;;;;;;;4987472;28;20042;-87
2022/04/16 01:43:22;;;;;;;3.63;2.53;;;;;;;;;;4983158;28;20478;-87
2022/04/16 01:45:49;;;;;;;3.53;2.15;;;;;;;;;;4984358;28;20045;-89
2022/04/16 01:48:19;;;;;;;4.45;2.30;;;;;;;;;;5000769;28;20045;-85
2022/04/16 01:50:51;;;;;;;4.55;2.03;;;;;;;;;;5001608;28;20099;-88
2022/04/16 01:53:17;;;;;;;6.50;2.47;;;;;;;;;;4982092;28;20053;-88
2022/04/16 01:55:42;;;;;;;5.65;2.60;;;;;;;;;;4983232;28;20026;-86
2022/04/16 01:58:08;;;;;;;5.00;2.33;;;;;;;;;;4988976;28;20038;-86
2022/04/16 02:00:34;;;;;;;3.90;2.67;;;;;;;;;;4983612;28;20052;-86
2022/04/16 02:03:00;;;;;;;2.92;2.22;;;;;;;;;;4981494;28;20116;-88
2022/04/16 02:05:26;;;;;;;4.65;2.38;;;;;;;;;;4995406;28;20046;-83
2022/04/16 02:07:51;;;;;;;5.03;2.50;;;;;;;;;;4989799;28;20117;-88
2022/04/16 02:10:17;;;;;;;4.32;2.30;;;;;;;;;;4980062;28;20602;-85
2022/04/16 02:12:43;;;;;;;6.75;2.33;;;;;;;;;;4978876;28;20038;-86
2022/04/16 02:15:09;;;;;;;4.82;2.40;;;;;;;;;;5008217;28;20090;-88
2022/04/16 02:17:36;;;;;;;5.93;2.50;;;;;;;;;;4983704;28;20062;-89
2022/04/16 02:20:03;;;;;;;3.17;1.85;;;;;;;;;;4983030;28;20038;-86
2022/04/16 02:22:42;;;;;;;4.10;2.33;;;;;;;;;;4988428;28;20390;-87
2022/04/16 02:25:08;;;;;;;3.40;2.65;;;;;;;;;;4984532;28;20097;-87
2022/04/16 02:27:35;;;;;;;5.35;2.40;;;;;;;;;;4991449;28;20443;-89
2022/04/16 02:30:06;;;;;;;3.75;2.45;;;;;;;;;;4986231;28;20034;-87
2022/04/16 02:32:34;;;;;;;3.80;2.20;;;;;;;;;;4990047;28;20042;-87
2022/04/16 02:35:00;;;;;;;3.83;2.13;;;;;;;;;;5002383;28;20042;-84
2022/04/16 02:37:25;;;;;;;7.93;2.13;;;;;;;;;;5012685;28;20041;-85
2022/04/16 02:39:51;;;;;;;5.07;2.50;;;;;;;;;;4994415;28;20041;-89
2022/04/16 02:42:18;;;;;;;3.03;2.00;;;;;;;;;;5009643;28;20069;-86
2022/04/16 02:47:29;;;;;;;3.88;1.92;;;;;;;;;;5012155;28;20517;-86
2022/04/16 02:49:55;;;;;;;5.28;2.88;;;;;;;;;;4999371;28;20038;-87
2022/04/16 02:52:22;;;;;;;5.25;2.20;;;;;;;;;;4985898;28;20172;-87
2022/04/16 02:54:48;;;;;;;4.30;2.65;;;;;;;;;;4982674;28;20038;-86
2022/04/16 02:57:14;;;;;;;4.70;2.40;;;;;;;;;;5009843;28;20167;-87
2022/04/16 02:59:40;;;;;;;5.22;2.75;;;;;;;;;;5001759;28;20497;-85
2022/04/16 03:02:05;;;;;;;4.15;2.38;;;;;;;;;;4992129;28;20132;-88
2022/04/16 03:04:32;;;;;;;3.95;2.42;;;;;;;;;;5005588;28;20173;-86
2022/04/16 03:06:58;;;;;;;3.50;2.03;;;;;;;;;;4990306;28;20026;-84
2022/04/16 03:09:24;;;;;;;3.70;2.30;;;;;;;;;;4991124;28;20034;-85
2022/04/16 03:11:49;;;;;;;5.43;2.40;;;;;;;;;;5006513;28;20483;-87
2022/04/16 03:19:45;;;;;;;3.03;2.17;;;;;;;;;;5009275;28;20392;-87
2022/04/16 03:22:11;;;;;;;4.75;2.33;;;;;;;;;;4987070;28;20072;-86
2022/04/16 03:24:36;;;;;;;5.85;2.42;;;;;;;;;;5012047;28;20056;-86
2022/04/16 03:27:02;;;;;;;3.67;2.40;;;;;;;;;;4993183;28;20045;-85
2022/04/16 03:29:27;;;;;;;3.20;2.20;;;;;;;;;;5010311;28;20041;-86
2022/04/16 03:31:53;;;;;;;4.30;2.45;;;;;;;;;;4992047;28;20056;-88
2022/04/16 03:34:18;;;;;;;3.10;2.45;;;;;;;;;;4993544;28;20060;-89
2022/04/16 03:36:44;;;;;;;4.03;2.53;;;;;;;;;;4992457;28;20045;-87
2022/04/16 03:39:09;;;;;;;4.15;2.53;;;;;;;;;;4992194;28;20061;-85
2022/04/16 03:41:35;;;;;;;9.07;2.85;;;;;;;;;;4991232;28;20069;-88
2022/04/16 03:44:00;;;;;;;4.25;2.90;;;;;;;;;;5002206;28;20030;-88
2022/04/16 03:46:26;;;;;;;3.20;2.30;;;;;;;;;;4986826;28;20038;-87
2022/04/16 03:48:51;;;;;;;5.32;2.83;;;;;;;;;;4992145;28;20046;-85
2022/04/16 03:51:17;;;;;;;4.13;3.08;;;;;;;;;;4989903;28;20034;-88
2022/04/16 03:53:42;;;;;;;4.57;2.45;;;;;;;;;;4989993;28;20072;-88
2022/04/16 04:01:36;;;;;;;5.60;3.30;;;;;;;;;;5012292;28;20539;-84
2022/04/16 04:04:01;;;;;;;7.10;2.90;;;;;;;;;;4991989;28;20187;-89
2022/04/16 04:06:27;;;;;;;4.25;2.78;;;;;;;;;;4989682;28;20034;-88
2022/04/16 04:08:52;;;;;;;4.07;2.40;;;;;;;;;;4997018;28;20490;-86
2022/04/16 04:11:18;;;;;;;6.15;3.05;;;;;;;;;;4999505;28;20034;-83
2022/04/16 04:13:43;;;;;;;3.22;2.47;;;;;;;;;;4989062;28;20049;-85
2022/04/16 04:16:09;;;;;;;3.95;2.78;;;;;;;;;;4989487;28;20080;-85
2022/04/16 04:18:34;;;;;;;6.30;2.78;;;;;;;;;;5011549;28;20026;-83
2022/04/16 04:21:00;;;;;;;5.38;2.90;;;;;;;;;;4989409;28;20068;-86
2022/04/16 04:23:25;;;;;;;4.65;3.65;;;;;;;;;;5013309;28;20054;-89
2022/04/16 04:25:51;;;;;;;5.70;2.92;;;;;;;;;;5006212;28;20407;-83
2022/04/16 04:28:17;;;;;;;5.13;3.50;;;;;;;;;;4993457;28;20434;-86
2022/04/16 04:30:43;;;;;;;6.05;2.90;;;;;;;;;;5008913;28;20033;-88
2022/04/16 04:33:08;;;;;;;6.68;2.92;;;;;;;;;;4992264;28;20034;-86
2022/04/16 04:35:34;;;;;;;5.22;3.33;;;;;;;;;;4982602;28;20034;-89
2022/04/16 04:37:59;;;;;;;5.10;3.30;;;;;;;;;;5002344;28;20049;-87
2022/04/16 04:40:25;;;;;;;6.25;3.40;;;;;;;;;;4990854;28;20035;-87
2022/04/16 04:42:50;;;;;;;9.55;4.47;;;;;;;;;;4990408;28;20034;-85
2022/04/16 04:45:17;;;;;;;6.53;4.50;;;;;;;;;;5001877;28;20037;-87
2022/04/16 04:47:42;;;;;;;13.05;6.60;;;;;;;;;;4979513;28;20530;-87
2022/04/16 04:50:09;;;;;;;11.55;5.25;;;;;;;;;;4987401;28;20034;-85
2022/04/16 04:52:39;;;;;;;8.02;4.47;;;;;;;;;;4999939;28;20089;-87
2022/04/16 04:55:07;;;;;;;;;;;;;;;;;;4987289;28;20045;-87
2022/04/16 04:57:32;;;;;;;6.80;4.68;;;;;;;;;;4987768;28;19914;-84
2022/04/16 04:59:58;;;;;;;7.35;3.90;;;;;;;;;;4984452;28;20398;-84
2022/04/16 05:02:23;;;;;;;7.85;4.43;;;;;;;;;;4991662;28;20037;-90
2022/04/16 05:04:49;;;;;;;12.43;5.53;;;;;;;;;;5007403;28;20041;-84
2022/04/16 05:07:14;;;;;;;10.20;5.57;;;;;;;;;;4989231;28;20061;-87
2022/04/16 05:09:40;;;;;;;10.40;6.15;;;;;;;;;;5009341;28;20491;-87
2022/04/16 05:12:05;;;;;;;8.25;4.88;;;;;;;;;;4991394;28;20029;-86
2022/04/16 05:14:34;;;;;;;8.85;5.38;;;;;;;;;;5007150;28;20045;-87
2022/04/16 05:17:00;;;;;;;7.70;5.45;;;;;;;;;;4990158;28;20497;-86
2022/04/16 05:19:25;;;;;;;10.65;5.70;;;;;;;;;;5003956;28;20042;-85
2022/04/16 05:21:51;;;;;;;10.25;5.47;;;;;;;;;;5003586;28;20042;-88
2022/04/16 05:24:16;;;;;;;11.13;5.95;;;;;;;;;;5007069;28;20044;-85
2022/04/16 05:26:42;;;;;;;9.15;5.00;;;;;;;;;;5008587;28;20092;-86
2022/04/16 05:29:07;;;;;;;12.13;5.53;;;;;;;;;;4991765;28;20037;-90
2022/04/16 05:31:33;;;;;;;10.52;5.32;;;;;;;;;;5003208;28;20037;-87
2022/04/16 05:36:44;;;;;;;11.55;5.47;;;;;;;;;;5003793;28;20037;-87
2022/04/16 05:39:09;;;;;;;9.93;5.88;;;;;;;;;;5004808;28;20072;-86
2022/04/16 05:41:35;;;;;;;12.07;6.25;;;;;;;;;;4981184;28;20821;-87
2022/04/16 05:44:01;;;;;;;8.98;5.28;;;;;;;;;;4988853;28;20038;-84
2022/04/16 05:46:27;;;;;;;9.05;5.35;;;;;;;;;;5001435;28;20048;-86
2022/04/16 05:48:52;;;;;;;12.98;6.25;;;;;;;;;;4997715;28;20522;-87
2022/04/16 05:51:19;;;;;;;10.55;5.82;;;;;;;;;;4980818;28;20034;-88
2022/04/16 05:53:46;;;;;;;8.43;5.32;;;;;;;;;;4999479;28;20114;-87
2022/04/16 05:56:12;;;;;;;10.55;6.22;;;;;;;;;;4987948;28;20483;-90
2022/04/16 05:58:38;;;;;;;14.75;5.53;;;;;;;;;;4985705;28;20124;-90
2022/04/16 06:01:03;;;;;;;9.27;6.25;;;;;;;;;;5004273;28;20125;-90
2022/04/16 06:03:30;;;;;;;9.88;5.68;;;;;;;;;;4989923;28;20038;-85
2022/04/16 06:05:56;;;;;;;12.57;5.22;;;;;;;;;;4988883;28;20034;-88
2022/04/16 06:08:21;;;;;;;13.13;5.70;;;;;;;;;;5004418;28;20434;-86
2022/04/16 06:10:47;;;;;;;15.10;7.22;;;;;;;;;;4983243;28;20033;-90
2022/04/16 06:13:12;;;;;;;12.40;6.03;;;;;;;;;;5003255;28;20045;-90
2022/04/16 06:15:42;;;;;;;13.35;6.38;;;;;;;;;;4991846;28;20038;-86
2022/04/16 06:18:08;;;;;;;12.73;6.55;;;;;;;;;;5014368;28;20482;-89
2022/04/16 06:20:35;;;;;;;11.65;5.82;;;;;;;;;;4994317;28;20037;-85
2022/04/16 06:23:01;;;;;;;9.43;5.35;;;;;;;;;;4997621;28;20038;-86
2022/04/16 06:25:27;;;;;;;11.15;5.65;;;;;;;;;;4992857;28;20491;-90
2022/04/16 06:27:52;;;;;;;11.30;5.60;;;;;;;;;;4996252;28;20038;-85
2022/04/16 06:30:18;;;;;;;12.30;5.65;;;;;;;;;;4989935;28;20030;-86
2022/04/16 06:32:43;;;;;;;6.05;4.18;;;;;;;;;;5006366;28;20045;-87
2022/04/16 06:35:12;;;;;;;9.35;4.53;;;;;;;;;;5008605;28;20088;-87
2022/04/16 06:37:38;;;;;;;9.43;4.38;;;;;;;;;;4995124;28;20064;-86
2022/04/16 06:40:06;;;;;;;7.57;4.30;;;;;;;;;;4984742;28;20399;-87
2022/04/16 06:42:31;;;;;;;8.57;4.03;;;;;;;;;;5011169;28;20038;-85
2022/04/16 06:44:57;;;;;;;6.57;4.05;;;;;;;;;;4984703;28;20043;-89
2022/04/16 06:47:23;;;;;;;5.97;4.10;;;;;;;;;;5011266;28;20166;-87
2022/04/16 06:49:49;;;;;;;8.98;5.00;;;;;;;;;;4995263;28;20478;-90
2022/04/16 06:52:19;;;;;;;6.45;4.53;;;;;;;;;;5016488;28;20029;-89
2022/04/16 06:54:48;;;;;;;6.93;3.58;;;;;;;;;;4985167;28;20498;-86
2022/04/16 06:57:14;;;;;;;9.27;4.68;;;;;;;;;;4989744;28;20045;-86
2022/04/16 06:59:39;;;;;;;6.03;4.05;;;;;;;;;;4983427;28;20038;-87
2022/04/16 07:02:06;;;;;;;10.50;4.57;;;;;;;;;;4984917;28;20046;-87
2022/04/16 07:04:32;;;;;;;7.90;4.72;;;;;;;;;;4983978;28;20041;-81
2022/04/16 07:06:58;;;;;;;10.88;7.07;;;;;;;;;;5006187;28;20034;-85
2022/04/16 07:09:23;;;;;;;11.45;4.03;;;;;;;;;;4985368;28;20089;-87
2022/04/16 07:11:49;;;;;;;8.52;4.50;;;;;;;;;;5008228;28;20104;-86
2022/04/16 07:14:15;;;;;;;26.52;16.65;;;;;;;;;;5009055;28;20030;-85
2022/04/16 07:16:40;;;;;;;21.38;11.43;;;;;;;;;;4985693;28;20033;-84
2022/04/16 07:19:06;;;;;;;18.83;10.75;;;;;;;;;;5007967;28;20030;-85
2022/04/16 07:21:31;;;;;;;8.48;5.45;;;;;;;;;;4989413;28;20034;-84
2022/04/16 07:23:57;;;;;;;15.38;8.18;;;;;;;;;;4985611;28;20108;-84
2022/04/16 07:26:22;;;;;;;9.05;5.72;;;;;;;;;;5004165;28;20395;-85
2022/04/16 07:28:48;;;;;;;16.20;7.63;;;;;;;;;;5004986;28;20068;-86
2022/04/16 07:31:13;;;;;;;13.73;7.80;;;;;;;;;;5008358;28;20038;-88
2022/04/16 07:33:39;;;;;;;15.80;6.55;;;;;;;;;;4989347;28;20045;-88
2022/04/16 07:36:04;;;;;;;10.98;7.05;;;;;;;;;;4984747;28;20041;-87
2022/04/16 07:38:30;;;;;;;9.88;5.85;;;;;;;;;;4983427;28;20484;-88
2022/04/16 07:40:55;;;;;;;11.95;6.97;;;;;;;;;;5010251;28;20084;-85
2022/04/16 07:43:21;;;;;;;11.52;5.90;;;;;;;;;;5005558;28;20030;-86
2022/04/16 07:45:46;;;;;;;9.52;5.28;;;;;;;;;;4984500;28;20038;-83
2022/04/16 07:48:12;;;;;;;10.00;5.18;;;;;;;;;;5005532;28;20145;-85
2022/04/16 07:50:37;;;;;;;10.88;5.65;;;;;;;;;;4985613;28;20031;-88
2022/04/16 07:53:04;;;;;;;8.80;5.07;;;;;;;;;;4984306;28;20117;-84
2022/04/16 07:55:32;;;;;;;12.23;5.53;;;;;;;;;;4988101;28;20054;-87
2022/04/16 07:57:58;;;;;;;9.13;4.85;;;;;;;;;;4990487;28;20576;-87
2022/04/16 08:00:24;;;;;;;12.60;6.13;;;;;;;;;;4986732;28;20481;-85
2022/04/16 08:02:49;;;;;;;12.20;9.93;;;;;;;;;;5007160;28;20071;-86
2022/04/16 08:05:15;;;;;;;7.97;6.10;;;;;;;;;;5002653;28;20546;-85
2022/04/16 08:07:40;;;;;;;11.93;6.97;;;;;;;;;;4989491;28;20057;-87
2022/04/16 08:10:07;;;;;;;10.02;6.18;;;;;;;;;;4988620;28;20034;-86
2022/04/16 08:12:33;;;;;;;12.38;6.28;;;;;;;;;;5003696;28;20037;-86
2022/04/16 08:14:58;;;;;;;10.13;5.93;;;;;;;;;;4989705;28;20096;-87
2022/04/16 08:17:24;;;;;;;10.15;6.38;;;;;;;;;;4987330;28;20441;-86
2022/04/16 08:19:49;;;;;;;9.10;5.35;;;;;;;;;;4992801;28;20038;-83
2022/04/16 08:22:23;;;;;;;9.50;6.03;;;;;;;;;;5005357;28;20057;-88
2022/04/16 08:27:34;;;;;;;14.18;5.70;;;;;;;;;;5002825;28;20096;-85
2022/04/16 08:29:59;;;;;;;8.50;5.05;;;;;;;;;;4990883;28;20442;-85
2022/04/16 08:32:25;;;;;;;9.88;5.70;;;;;;;;;;5008474;28;20126;-84
2022/04/16 08:34:51;;;;;;;8.38;5.28;;;;;;;;;;5001373;28;20041;-87
2022/04/16 08:37:18;;;;;;;17.67;6.15;;;;;;;;;;5005995;28;20044;-85
2022/04/16 08:39:43;;;;;;;9.30;5.40;;;;;;;;;;4978858;28;20443;-85
2022/04/16 08:42:09;;;;;;;12.45;6.32;;;;;;;;;;5007219;28;20042;-87
2022/04/16 08:44:38;;;;;;;11.57;5.30;;;;;;;;;;4993263;28;20109;-86
2022/04/16 08:47:05;;;;;;;11.13;6.07;;;;;;;;;;5008419;28;20575;-87
2022/04/16 08:49:33;;;;;;;8.13;4.75;;;;;;;;;;5000350;28;20260;-87
2022/04/16 08:51:59;;;;;;;9.93;4.88;;;;;;;;;;5004681;28;20037;-87
2022/04/16 08:54:25;;;;;;;10.85;6.25;;;;;;;;;;5004618;28;20042;-86
2022/04/16 08:56:51;;;;;;;12.38;5.97;;;;;;;;;;4987186;28;20041;-87
2022/04/16 08:59:16;;;;;;;8.38;5.10;;;;;;;;;;5008559;28;20041;-85
2022/04/16 09:01:42;;;;;;;8.85;5.18;;;;;;;;;;5001958;28;20034;-87
2022/04/16 09:04:21;;;;;;;9.60;5.18;;;;;;;;;;4988596;28;20093;-87
2022/04/16 09:07:03;;;;;;;8.70;5.25;;;;;;;;;;5004697;28;20026;-87
2022/04/16 09:09:29;;;;;;;8.07;4.55;;;;;;;;;;4999879;28;20030;-87
2022/04/16 09:11:55;;;;;;;7.32;4.82;;;;;;;;;;4986561;28;20112;-87
2022/04/16 09:14:35;;;;;;;8.40;4.55;;;;;;;;;;5010221;28;20116;-85
2022/04/16 09:17:00;;;;;;;8.20;4.72;;;;;;;;;;4989010;28;20521;-88
2022/04/16 09:19:29;;;;;;;7.88;4.38;;;;;;;;;;5006204;28;20036;-89
2022/04/16 09:21:55;;;;;;;9.00;4.70;;;;;;;;;;4994079;28;20029;-86
2022/04/16 09:24:20;;;;;;;7.70;4.93;;;;;;;;;;4986021;28;20524;-86
2022/04/16 09:26:49;;;;;;;7.35;4.45;;;;;;;;;;5011371;28;20049;-89
2022/04/16 09:29:16;;;;;;;7.90;5.25;;;;;;;;;;5002681;28;20108;-85
2022/04/16 09:31:44;;;;;;;8.18;4.90;;;;;;;;;;4989255;28;20061;-88
2022/04/16 09:34:18;;;;;;;8.48;5.03;;;;;;;;;;5004799;28;20490;-86
2022/04/16 09:36:44;;;;;;;7.25;5.15;;;;;;;;;;4991275;28;20121;-91
2022/04/16 09:39:11;;;;;;;7.80;4.80;;;;;;;;;;4982872;28;20030;-87
2022/04/16 09:41:49;;;;;;;11.13;5.20;;;;;;;;;;4992686;28;20383;-88
2022/04/16 09:44:21;;;;;;;12.82;4.75;;;;;;;;;;4995759;28;20412;-88
2022/04/16 09:46:48;;;;;;;6.95;4.60;;;;;;;;;;5007568;28;20059;-88
2022/04/16 09:49:16;;;;;;;7.68;4.43;;;;;;;;;;4996055;28;20108;-89
2022/04/16 09:51:44;;;;;;;10.38;6.03;;;;;;;;;;4988594;28;20038;-89
2022/04/16 09:54:10;;;;;;;6.75;4.47;;;;;;;;;;4992745;28;20038;-89
2022/04/16 09:56:40;;;;;;;8.32;4.50;;;;;;;;;;5011368;28;20037;-88
2022/04/16 09:59:17;;;;;;;8.77;5.63;;;;;;;;;;4994346;28;20538;-89
2022/04/16 10:01:51;;;;;;;8.27;5.60;;;;;;;;;;4995601;28;20053;-88
2022/04/16 10:04:19;;;;;;;8.05;5.30;;;;;;;;;;4983759;28;20390;-89
2022/04/16 10:06:46;;;;;;;10.43;5.22;;;;;;;;;;4995531;28;20401;-89
2022/04/16 10:09:17;;;;;;;8.23;5.05;;;;;;;;;;4988116;28;20093;-88
2022/04/16 10:14:55;;;;;;;7.60;4.85;;;;;;;;;;5012278;28;20049;-88
2022/04/16 10:17:39;;;;;;;8.23;5.45;;;;;;;;;;5006016;28;20250;-89
2022/04/16 10:20:18;;;;;;;7.15;5.18;;;;;;;;;;5011597;28;20033;-88
2022/04/16 10:22:56;;;;;;;14.88;5.78;;;;;;;;;;5008600;28;20049;-89
2022/04/16 10:25:42;;;;;;;9.38;5.30;;;;;;;;;;4998662;28;20398;-88
2022/04/16 10:28:19;;;;;;;6.68;4.63;;;;;;;;;;5009277;28;20038;-88
2022/04/16 10:30:53;;;;;;;10.55;5.25;;;;;;;;;;4993902;28;20034;-89
2022/04/16 10:33:32;;;;;;;6.97;5.15;;;;;;;;;;5014320;28;20125;-88
2022/04/16 10:36:09;;;;;;;14.23;6.20;;;;;;;;;;4994080;28;20046;-89
2022/04/16 10:38:40;;;;;;;8.68;5.65;;;;;;;;;;4994879;28;20108;-89
2022/04/16 10:41:15;;;;;;;7.97;5.07;;;;;;;;;;5009966;28;20120;-89
2022/04/16 10:43:50;;;;;;;10.75;5.43;;;;;;;;;;4996613;28;20050;-89
2022/04/16 10:46:16;;;;;;;9.52;5.75;;;;;;;;;;5011621;28;20038;-89
2022/04/16 10:48:44;;;;;;;8.75;4.88;;;;;;;;;;4987779;28;20060;-89
2022/04/16 10:51:13;;;;;;;10.05;5.45;;;;;;;;;;4987482;28;20034;-90
2022/04/16 10:53:39;;;;;;;16.50;6.30;;;;;;;;;;5007415;28;20120;-88
2022/04/16 10:56:12;;;;;;;11.77;4.85;;;;;;;;;;4995003;28;20072;-89
2022/04/16 10:58:43;;;;;;;11.80;5.75;;;;;;;;;;4993333;28;20033;-89
2022/04/16 11:01:10;;;;;;;12.32;5.90;;;;;;;;;;4997282;28;20093;-90
2022/04/16 11:03:45;;;;;;;8.80;5.78;;;;;;;;;;5007680;28;20026;-88
2022/04/16 11:51:29;;;;;;;10.10;5.85;;;;;;;;;;6048545;22;20037;-87
2022/04/16 11:53:55;;;;;;;8.07;6.15;;;;;;;;;;4974011;28;20175;-88
2022/04/16 11:56:23;;;;;;;12.48;5.78;;;;;;;;;;4974580;28;20058;-87
2022/04/16 11:58:50;;;;;;;7.82;5.63;;;;;;;;;;4978917;28;20039;-87
2022/04/16 12:01:20;;;;;;;8.73;5.47;;;;;;;;;;4972210;28;20057;-88
2022/04/16 12:03:45;;;;;;;15.55;6.32;;;;;;;;;;4974846;28;20039;-87
2022/04/16 12:06:12;;;;;;;10.68;5.43;;;;;;;;;;4973829;28;20031;-87
2022/04/16 12:08:42;;;;;;;9.52;5.72;;;;;;;;;;4973965;28;20044;-87
2022/04/16 12:11:09;;;;;;;9.40;5.72;;;;;;;;;;4954927;28;20365;-84
2022/04/16 12:14:05;;;;;;;;;;;;;;;;;;;;;
2022/04/16 12:16:37;;;;;;;15.82;5.75;;;;;;;;;;4972872;28;20049;-88
2022/04/16 12:19:13;;;;;;;7.35;6.07;;;;;;;;;;4971693;28;20031;-86
2022/04/16 12:21:42;;;;;;;7.82;5.30;;;;;;;;;;4974633;28;20117;-88
2022/04/16 12:24:09;;;;;;;8.85;6.45;;;;;;;;;;4975630;28;20092;-87
2022/04/16 12:26:35;;;;;;;9.10;5.38;;;;;;;;;;4975240;28;20049;-86
2022/04/16 12:29:09;;;;;;;8.48;5.65;;;;;;;;;;4975905;28;20447;-87
2022/04/16 12:31:34;;;;;;;6.60;5.10;;;;;;;;;;4992750;28;20050;-88
2022/04/16 12:34:00;;;;;;;10.13;5.10;;;;;;;;;;4992809;28;20042;-87
2022/04/16 12:36:25;;;;;;;7.70;5.38;;;;;;;;;;4992388;28;20491;-87
2022/04/16 12:38:51;;;;;;;7.03;4.63;;;;;;;;;;4975477;28;20034;-88
2022/04/16 12:41:20;;;;;;;8.50;5.10;;;;;;;;;;4989050;28;20034;-87
2022/04/16 12:43:46;;;;;;;10.18;5.75;;;;;;;;;;4991388;28;20042;-88
2022/04/16 12:46:11;;;;;;;10.60;5.78;;;;;;;;;;4975398;28;20482;-88
2022/04/16 12:48:42;;;;;;;7.57;5.38;;;;;;;;;;4975240;28;20077;-86
2022/04/16 12:59:02;;;;;;;8.52;5.20;;;;;;;;;;4971032;28;20495;-87
2022/04/16 13:58:08;;;;;;;17.40;8.23;;;;;;;;;;5026137;28;20140;-84
2022/04/16 14:00:34;;;;;;;10.82;6.38;;;;;;;;;;5032264;28;20548;-86
2022/04/16 14:03:09;;;;;;;41.10;20.98;;;;;;;;;;5013017;28;20045;-87
2022/04/16 14:05:43;;;;;;;14.63;8.75;;;;;;;;;;5009938;28;20394;-88
2022/04/16 14:08:18;;;;;;;20.88;12.13;;;;;;;;;;5025813;28;20045;-87
2022/04/16 14:10:44;;;;;;;10.63;6.40;;;;;;;;;;5014229;28;20072;-89
2022/04/16 14:13:12;;;;;;;12.95;7.32;;;;;;;;;;5032718;28;20036;-91
2022/04/16 14:15:38;;;;;;;6.75;5.07;;;;;;;;;;5014773;28;20554;-86
2022/04/16 14:18:03;;;;;;;9.23;5.60;;;;;;;;;;5015202;28;20124;-87
2022/04/16 14:20:29;;;;;;;12.77;6.65;;;;;;;;;;5030558;28;20032;-89
2022/04/16 14:22:58;;;;;;;9.23;5.45;;;;;;;;;;5015196;28;20060;-87
2022/04/16 14:25:25;;;;;;;8.23;4.97;;;;;;;;;;5015212;28;20030;-86
2022/04/16 14:27:51;;;;;;;6.40;3.90;;;;;;;;;;5032960;28;20052;-88
2022/04/16 14:30:18;;;;;;;6.30;3.58;;;;;;;;;;5018606;28;20037;-86
2022/04/16 14:32:44;;;;;;;6.38;2.92;;;;;;;;;;5017351;28;20065;-90
2022/04/16 14:35:12;;;;;;;5.05;2.53;;;;;;;;;;5017810;28;20052;-89
2022/04/16 14:37:42;;;;;;;5.40;2.88;;;;;;;;;;5035708;28;20029;-88
2022/04/16 14:40:17;;;;;;;6.03;2.88;;;;;;;;;;5017984;28;20040;-89
2022/04/16 14:42:48;;;;;;;3.97;2.58;;;;;;;;;;5017985;28;20044;-88
2022/04/16 14:45:14;;;;;;;4.60;3.05;;;;;;;;;;5017309;28;20559;-89
2022/04/16 14:47:47;;;;;;;7.05;3.40;;;;;;;;;;5017716;28;20037;-86
2022/04/16 14:50:13;;;;;;;6.00;3.65;;;;;;;;;;5017287;28;20030;-86
2022/04/16 14:52:39;;;;;;;7.28;3.60;;;;;;;;;;5019433;28;20041;-87
2022/04/16 14:55:07;;;;;;;4.72;3.63;;;;;;;;;;5017522;28;20060;-88
2022/04/16 14:57:33;;;;;;;15.10;8.93;;;;;;;;;;5034987;28;20033;-90
2022/04/16 14:59:58;;;;;;;11.68;7.75;;;;;;;;;;5017587;28;20041;-87
2022/04/16 15:02:24;;;;;;;26.98;16.33;;;;;;;;;;5021096;28;20045;-91
2022/04/16 15:04:51;;;;;;;29.77;19.60;;;;;;;;;;5015972;28;20487;-89
2022/04/16 15:07:18;;;;;;;9.55;6.90;;;;;;;;;;5019975;28;20041;-88
2022/04/16 15:09:44;;;;;;;9.18;5.78;;;;;;;;;;5017776;28;20039;-90
2022/04/16 15:12:11;;;;;;;7.82;4.68;;;;;;;;;;5036230;28;20030;-83
2022/04/16 15:14:36;;;;;;;5.95;3.95;;;;;;;;;;5034768;28;20375;-90
2022/04/16 15:17:02;;;;;;;12.05;5.18;;;;;;;;;;5015987;28;20120;-86
2022/04/16 15:19:27;;;;;;;6.75;4.35;;;;;;;;;;5016621;28;20076;-90
2022/04/16 15:21:53;;;;;;;5.78;3.90;;;;;;;;;;5034935;28;20044;-87
2022/04/16 15:24:18;;;;;;;11.00;4.78;;;;;;;;;;5034666;28;20064;-87
2022/04/16 15:26:44;;;;;;;10.65;4.60;;;;;;;;;;5033731;28;20033;-88
2022/04/16 15:29:09;;;;;;;7.55;4.53;;;;;;;;;;5017178;28;20045;-92
2022/04/16 15:31:36;;;;;;;7.63;4.93;;;;;;;;;;5017312;28;20036;-90
2022/04/16 15:34:09;;;;;;;7.70;4.47;;;;;;;;;;5017838;28;20041;-91
2022/04/16 15:36:38;;;;;;;6.78;4.20;;;;;;;;;;5018410;28;20034;-88
2022/04/16 15:39:05;;;;;;;6.93;4.67;;;;;;;;;;5038365;28;20044;-89
2022/04/16 15:41:31;;;;;;;5.78;4.07;;;;;;;;;;5017787;28;20045;-89
2022/04/16 15:44:06;;;;;;;8.90;4.32;;;;;;;;;;5017339;28;20033;-90
2022/04/16 15:46:38;;;;;;;7.65;4.55;;;;;;;;;;5017291;28;20485;-91
2022/04/16 15:49:04;;;;;;;6.22;4.57;;;;;;;;;;5016857;28;20413;-90
2022/04/16 15:51:30;;;;;;;12.02;6.35;;;;;;;;;;5018833;28;20053;-88
2022/04/16 15:53:56;;;;;;;10.63;4.35;;;;;;;;;;5016807;28;20049;-88
2022/04/16 15:56:22;;;;;;;6.28;4.25;;;;;;;;;;5017252;28;20084;-88
2022/04/16 15:58:47;;;;;;;12.68;7.03;;;;;;;;;;5034337;28;20060;-87
2022/04/16 16:01:23;;;;;;;9.70;7.05;;;;;;;;;;5017028;28;20033;-89
2022/04/16 16:03:49;;;;;;;8.85;4.32;;;;;;;;;;5017773;28;20099;-88
2022/04/16 16:06:28;;;;;;;8.75;5.10;;;;;;;;;;5034377;28;20029;-90
2022/04/16 16:08:56;;;;;;;32.50;22.75;;;;;;;;;;5015225;28;20033;-88
2022/04/16 16:11:22;;;;;;;43.33;29.67;;;;;;;;;;5034052;28;20064;-89
2022/04/16 16:13:49;;;;;;;10.50;8.57;;;;;;;;;;5015879;28;20045;-88
2022/04/16 16:16:14;;;;;;;9.65;6.28;;;;;;;;;;5034629;28;20041;-88
2022/04/16 16:18:40;;;;;;;6.30;5.57;;;;;;;;;;5034633;28;20113;-87
2022/04/16 16:21:07;;;;;;;12.32;5.55;;;;;;;;;;5015607;28;20123;-88
2022/04/16 16:23:34;;;;;;;10.90;6.95;;;;;;;;;;5037696;28;20044;-87
2022/04/16 16:25:59;;;;;;;7.40;5.22;;;;;;;;;;5013788;28;20113;-87
2022/04/16 16:28:25;;;;;;;9.52;6.32;;;;;;;;;;5037841;28;20704;-87
2022/04/16 16:30:50;;;;;;;12.85;10.13;;;;;;;;;;5040669;28;20042;-88
2022/04/16 16:33:16;;;;;;;16.33;9.52;;;;;;;;;;5016406;28;20045;-90
2022/04/16 16:35:42;;;;;;;12.00;7.60;;;;;;;;;;5021935;28;20033;-88
2022/04/16 16:38:08;;;;;;;18.17;10.45;;;;;;;;;;5034075;28;20465;-88
2022/04/16 16:40:33;;;;;;;21.95;11.23;;;;;;;;;;5016080;28;20037;-88
2022/04/16 16:42:59;;;;;;;18.73;9.90;;;;;;;;;;5016205;28;20433;-87
2022/04/16 16:45:25;;;;;;;19.40;9.50;;;;;;;;;;5033994;28;20029;-89
2022/04/16 16:47:51;;;;;;;28.08;13.13;;;;;;;;;;5016234;28;20048;-89
2022/04/16 16:50:16;;;;;;;88.50;51.97;;;;;;;;;;5016228;28;20038;-88
2022/04/16 16:52:42;;;;;;;59.40;33.50;;;;;;;;;;5034414;28;20041;-88